Time;durP1;ratioP1;P1;durP2;ratioP2;P2;SDS_P1;SDS_P2;PMS_P1;PMS_P2;Temp;Humidity;BMP_temperature;BMP_pressure;BME280_temperature;BME280_humidity;BME280_pressure;Samples;Min_cycle;Max_cycle;Signal;HPM_P1;HPM_P2
2022/03/19 00:02:18;;;;;;;0.40;0.30;;;;;;;7.01;83.92;104053.66;5032898;28;20458;-72
2022/03/19 00:04:45;;;;;;;0.40;0.30;;;;;;;7.02;83.91;104060.69;5032932;28;20964;-72
2022/03/19 00:07:13;;;;;;;0.40;0.30;;;;;;;7.02;83.75;104053.44;5033167;28;20463;-72
2022/03/19 00:09:40;;;;;;;0.40;0.30;;;;;;;7.04;83.27;104053.28;5032718;28;21015;-72
2022/03/19 00:12:07;;;;;;;0.40;0.30;;;;;;;7.06;82.95;104053.91;5033300;28;20494;-71
2022/03/19 00:14:33;;;;;;;0.40;0.30;;;;;;;6.95;83.20;104057.09;5033224;28;20498;-71
2022/03/19 00:17:00;;;;;;;0.40;0.30;;;;;;;6.95;83.24;104046.31;5032704;28;20548;-71
2022/03/19 00:19:27;;;;;;;0.40;0.30;;;;;;;6.90;82.45;104049.56;5032672;28;20905;-71
2022/03/19 00:21:53;;;;;;;0.40;0.30;;;;;;;6.90;82.25;104056.81;5032922;28;20439;-71
2022/03/19 00:24:21;;;;;;;0.40;0.30;;;;;;;6.83;82.18;104063.00;5032338;28;20443;-71
2022/03/19 00:26:47;;;;;;;0.40;0.30;;;;;;;6.74;82.19;104066.00;5032492;28;20447;-71
2022/03/19 00:29:14;;;;;;;0.40;0.30;;;;;;;6.73;81.20;104049.00;5032932;28;20443;-71
2022/03/19 00:31:40;;;;;;;0.40;0.30;;;;;;;6.69;80.74;104054.94;5032841;28;20525;-71
2022/03/19 00:34:07;;;;;;;0.40;0.30;;;;;;;6.63;80.34;104053.00;5032538;28;20451;-71
2022/03/19 00:36:34;;;;;;;0.40;0.30;;;;;;;6.62;80.80;104054.84;5032766;28;20439;-71
2022/03/19 00:39:01;;;;;;;0.40;0.30;;;;;;;6.52;80.16;104065.09;5032810;28;20451;-71
2022/03/19 00:41:29;;;;;;;0.40;0.30;;;;;;;6.46;80.22;104063.13;5035446;28;20450;-71
2022/03/19 00:43:55;;;;;;;0.40;0.30;;;;;;;6.50;79.81;104053.66;5036506;28;20447;-70
2022/03/19 00:46:21;;;;;;;0.40;0.30;;;;;;;6.49;80.20;104060.91;5036216;28;20446;-71
2022/03/19 00:48:48;;;;;;;0.40;0.30;;;;;;;6.41;80.62;104055.63;5036326;28;20462;-71
2022/03/19 00:51:15;;;;;;;0.40;0.30;;;;;;;6.35;80.58;104061.75;5036029;28;20545;-70
2022/03/19 00:53:41;;;;;;;0.40;0.30;;;;;;;6.38;80.85;104049.78;5036366;28;20461;-70
2022/03/19 00:56:08;;;;;;;0.40;0.30;;;;;;;6.40;80.85;104055.81;5036294;28;20450;-70
2022/03/19 00:58:35;;;;;;;0.40;0.30;;;;;;;6.38;81.02;104052.50;5035624;28;20968;-71
2022/03/19 01:01:02;;;;;;;0.40;0.30;;;;;;;6.44;80.56;104049.03;5035587;28;20828;-71
2022/03/19 01:03:29;;;;;;;0.40;0.30;;;;;;;6.39;80.98;104060.38;5037150;28;20454;-70
2022/03/19 01:05:55;;;;;;;0.40;0.30;;;;;;;6.37;81.35;104056.19;5035543;28;20457;-71
2022/03/19 01:08:22;;;;;;;0.40;0.30;;;;;;;6.31;81.90;104045.13;5035559;28;20471;-70
2022/03/19 01:10:48;;;;;;;0.40;0.30;;;;;;;6.33;82.20;104044.97;5035632;28;20541;-71
2022/03/19 01:13:15;;;;;;;0.40;0.30;;;;;;;6.36;82.12;104054.50;5035657;28;20447;-71
2022/03/19 01:15:42;;;;;;;0.40;0.30;;;;;;;6.30;82.95;104048.03;5035581;28;20447;-71
2022/03/19 01:18:09;;;;;;;0.77;0.77;;;;;;;6.30;82.57;104048.84;5035113;28;20486;-71
2022/03/19 01:20:35;;;;;;;0.40;0.30;;;;;;;6.26;82.46;104047.56;5035538;28;20443;-71
2022/03/19 01:23:03;;;;;;;0.40;0.30;;;;;;;6.16;82.10;104044.31;5035413;28;20455;-71
2022/03/19 01:25:29;;;;;;;0.40;0.30;;;;;;;6.09;82.47;104040.69;5035382;28;20447;-71
2022/03/19 01:27:56;;;;;;;0.40;0.30;;;;;;;5.94;84.45;104037.16;5035367;28;20467;-71
2022/03/19 01:30:24;;;;;;;0.40;0.30;;;;;;;5.94;85.05;104037.16;5035286;28;20482;-71
2022/03/19 01:32:52;;;;;;;0.40;0.30;;;;;;;5.96;84.70;104030.56;5035040;28;20451;-71
2022/03/19 01:35:20;;;;;;;0.40;0.30;;;;;;;5.91;83.88;104029.44;5035290;28;20443;-71
2022/03/19 01:37:47;;;;;;;0.40;0.30;;;;;;;5.87;84.06;104025.44;5035137;28;20490;-71
2022/03/19 01:40:16;;;;;;;0.40;0.30;;;;;;;5.79;84.68;104023.66;5035289;28;20451;-70
2022/03/19 01:42:44;;;;;;;1.63;1.53;;;;;;;5.71;85.20;104018.34;5035168;28;20451;-71
2022/03/19 01:45:12;;;;;;;0.40;0.30;;;;;;;5.66;84.77;104013.53;5034730;28;20936;-71
2022/03/19 01:47:39;;;;;;;0.40;0.30;;;;;;;5.59;84.79;104017.16;5035044;28;20503;-71
2022/03/19 01:50:08;;;;;;;0.40;0.30;;;;;;;5.49;85.43;104020.06;5034931;28;20451;-71
2022/03/19 01:52:35;;;;;;;0.40;0.30;;;;;;;5.48;85.96;104011.16;5033639;28;20454;-71
2022/03/19 01:55:02;;;;;;;0.40;0.30;;;;;;;5.40;86.30;104013.09;5035014;28;20447;-71
2022/03/19 01:57:34;;;;;;;0.40;0.30;;;;;;;5.35;85.57;104010.94;5034784;28;21011;-71
2022/03/19 02:00:01;;;;;;;0.40;0.30;;;;;;;5.23;86.21;103999.81;5035141;28;20424;-71
2022/03/19 02:02:28;;;;;;;0.40;0.30;;;;;;;5.26;86.39;104007.50;5034758;28;20440;-71
2022/03/19 02:04:55;;;;;;;0.40;0.30;;;;;;;5.27;87.39;103998.44;5035059;28;20451;-71
2022/03/19 02:07:22;;;;;;;0.40;0.30;;;;;;;5.23;88.21;103999.81;5034924;28;20534;-71
2022/03/19 02:09:49;;;;;;;0.40;0.30;;;;;;;5.19;88.59;104009.25;5034913;28;20856;-71
2022/03/19 02:12:15;;;;;;;0.40;0.30;;;;;;;5.11;88.45;103998.56;5034838;28;20487;-72
2022/03/19 02:14:42;;;;;;;0.40;0.30;;;;;;;5.05;88.22;103999.28;5034815;28;20803;-72
2022/03/19 02:17:10;;;;;;;0.40;0.30;;;;;;;4.96;88.77;103995.00;5034638;28;20483;-72
2022/03/19 02:19:47;;;;;;;0.40;0.30;;;;;;;4.83;89.06;103998.28;5034437;28;20921;-71
2022/03/19 02:22:14;;;;;;;0.40;0.30;;;;;;;4.65;90.71;103986.94;5034471;28;20525;-72
2022/03/19 02:27:26;;;;;;;0.40;0.30;;;;;;;4.59;90.77;103991.19;5034092;28;20976;-71
2022/03/19 02:29:53;;;;;;;0.40;0.30;;;;;;;4.59;91.12;103984.97;5034110;28;20446;-71
2022/03/19 02:32:19;;;;;;;0.40;0.30;;;;;;;4.48;91.12;103972.81;5034045;28;20549;-71
2022/03/19 02:34:46;;;;;;;0.40;0.30;;;;;;;4.47;91.05;103981.84;5034056;28;20443;-72
2022/03/19 02:37:12;;;;;;;0.40;0.30;;;;;;;4.37;89.92;103973.19;5033994;28;20470;-72
2022/03/19 02:39:38;;;;;;;0.40;0.30;;;;;;;4.36;89.56;103979.56;5034054;28;20447;-72
2022/03/19 02:42:08;;;;;;;0.40;0.30;;;;;;;4.33;89.16;103977.22;5033965;28;20818;-72
2022/03/19 02:44:35;;;;;;;0.40;0.30;;;;;;;4.30;89.09;103975.75;5033619;28;20941;-72
2022/03/19 02:47:04;;;;;;;0.40;0.30;;;;;;;4.21;88.75;103969.59;5033817;28;20466;-72
2022/03/19 02:49:31;;;;;;;0.87;0.87;;;;;;;4.21;88.43;103964.22;5033844;28;20435;-72
2022/03/19 02:51:58;;;;;;;0.40;0.30;;;;;;;4.15;87.52;103958.69;5033690;28;20483;-72
2022/03/19 02:54:26;;;;;;;0.40;0.30;;;;;;;4.05;88.58;103964.28;5033497;28;20956;-72
2022/03/19 02:56:53;;;;;;;0.40;0.30;;;;;;;3.93;88.69;103955.75;5033543;28;20443;-72
2022/03/19 02:59:23;;;;;;;0.50;0.50;;;;;;;3.95;89.12;103963.66;5033650;28;20484;-72
2022/03/19 03:01:52;;;;;;;0.40;0.30;;;;;;;3.92;89.77;103958.63;5033559;28;20514;-71
2022/03/19 03:04:19;;;;;;;0.40;0.30;;;;;;;3.85;91.13;103960.31;5033311;28;20435;-72
2022/03/19 03:06:47;;;;;;;0.40;0.30;;;;;;;3.76;92.10;103954.13;5033084;28;20533;-71
2022/03/19 03:09:15;;;;;;;0.40;0.30;;;;;;;3.82;92.56;103955.31;5033520;28;20447;-72
2022/03/19 03:11:41;;;;;;;0.40;0.30;;;;;;;3.97;92.87;103951.72;5033308;28;20490;-71
2022/03/19 03:14:10;;;;;;;0.40;0.30;;;;;;;4.04;93.58;103950.03;5033305;28;20454;-71
2022/03/19 03:16:38;;;;;;;0.40;0.30;;;;;;;4.10;94.03;103956.53;5033084;28;20453;-72
2022/03/19 03:19:06;;;;;;;0.40;0.30;;;;;;;4.17;93.76;103952.16;5033362;28;20454;-71
2022/03/19 03:21:34;;;;;;;0.40;0.30;;;;;;;4.18;93.86;103959.19;5033311;28;20443;-72
2022/03/19 03:24:01;;;;;;;0.40;0.30;;;;;;;4.23;93.37;103950.63;5033315;28;20451;-72
2022/03/19 03:26:28;;;;;;;0.40;0.30;;;;;;;4.22;92.91;103951.63;5033277;28;20521;-71
2022/03/19 03:28:54;;;;;;;0.40;0.30;;;;;;;4.24;92.64;103953.13;5032855;28;20467;-71
2022/03/19 03:31:21;;;;;;;0.40;0.30;;;;;;;4.23;92.91;103954.13;5033105;28;20487;-72
2022/03/19 03:33:49;;;;;;;0.40;0.30;;;;;;;4.26;92.69;103961.84;5033197;28;20455;-72
2022/03/19 03:36:16;;;;;;;0.40;0.30;;;;;;;4.23;92.60;103948.75;5033090;28;20501;-76
2022/03/19 03:38:43;;;;;;;0.40;0.30;;;;;;;4.19;92.28;103955.50;5032974;28;20466;-72
2022/03/19 03:41:09;;;;;;;0.40;0.30;;;;;;;4.16;91.57;103953.19;5032717;28;20431;-71
2022/03/19 03:43:36;;;;;;;0.40;0.30;;;;;;;4.12;90.67;103961.72;5032979;28;20435;-71
2022/03/19 03:46:03;;;;;;;0.40;0.30;;;;;;;3.95;90.39;103958.28;5033000;28;20446;-71
2022/03/19 03:48:29;;;;;;;0.40;0.30;;;;;;;3.97;90.65;103961.63;5032496;28;20984;-71
2022/03/19 03:50:58;;;;;;;0.40;0.30;;;;;;;3.92;91.28;103954.09;5032775;28;20447;-72
2022/03/19 03:53:27;;;;;;;0.40;0.30;;;;;;;3.90;91.36;103957.97;5032842;28;20882;-72
2022/03/19 03:55:54;;;;;;;0.40;0.30;;;;;;;3.88;91.63;103949.25;5032774;28;20435;-72
2022/03/19 03:58:20;;;;;;;0.40;0.30;;;;;;;3.92;90.71;103954.09;5032559;28;20983;-72
2022/03/19 04:00:47;;;;;;;0.40;0.30;;;;;;;3.88;90.68;103954.63;5032453;28;20860;-71
2022/03/19 04:03:14;;;;;;;0.40;0.30;;;;;;;3.83;89.67;103954.28;5032322;28;20868;-71
2022/03/19 04:05:40;;;;;;;0.40;0.30;;;;;;;3.86;89.27;103953.97;5032361;28;20447;-72
2022/03/19 04:08:08;;;;;;;0.40;0.30;;;;;;;3.77;90.36;103955.84;5032603;28;20466;-72
2022/03/19 04:10:34;;;;;;;0.40;0.30;;;;;;;3.82;90.05;103952.63;5032375;28;20940;-71
2022/03/19 04:13:01;;;;;;;0.40;0.30;;;;;;;3.68;90.84;103946.16;5032295;28;20908;-73
2022/03/19 04:15:28;;;;;;;0.50;0.30;;;;;;;3.61;90.36;103951.34;5033758;28;20447;-70
2022/03/19 04:17:54;;;;;;;0.40;0.30;;;;;;;3.58;91.42;103958.88;5036212;28;20533;-70
2022/03/19 04:20:21;;;;;;;0.40;0.30;;;;;;;3.53;90.87;103943.31;5036670;28;20439;-70
2022/03/19 04:22:48;;;;;;;0.40;0.30;;;;;;;3.58;92.09;103946.31;5036623;28;20792;-71
2022/03/19 04:25:17;;;;;;;0.40;0.30;;;;;;;3.63;93.01;103951.16;5036601;28;20438;-71
2022/03/19 04:27:47;;;;;;;0.40;0.30;;;;;;;3.63;93.44;103943.97;5036423;28;20459;-72
2022/03/19 04:30:15;;;;;;;0.40;0.30;;;;;;;3.69;93.10;103945.13;5036480;28;20446;-71
2022/03/19 04:32:42;;;;;;;0.40;0.30;;;;;;;3.66;93.44;103948.13;5036404;28;20486;-71
2022/03/19 04:37:50;;;;;;;0.40;0.30;;;;;;;3.70;93.95;103939.59;5035081;28;20497;-72
2022/03/19 04:40:18;;;;;;;0.40;0.30;;;;;;;3.71;94.05;103941.25;5036389;28;20447;-71
2022/03/19 04:42:44;;;;;;;0.40;0.30;;;;;;;3.75;93.88;103937.22;5036340;28;20434;-71
2022/03/19 04:45:11;;;;;;;0.40;0.30;;;;;;;3.75;93.51;103942.56;5036292;28;20455;-71
2022/03/19 04:47:37;;;;;;;0.40;0.30;;;;;;;3.77;93.60;103939.75;5036100;28;20467;-71
2022/03/19 04:50:04;;;;;;;0.40;0.30;;;;;;;3.76;93.69;103944.28;5036633;28;20451;-71
2022/03/19 04:52:31;;;;;;;0.40;0.30;;;;;;;3.75;92.84;103939.06;5036042;28;20921;-70
2022/03/19 04:55:00;;;;;;;0.40;0.30;;;;;;;3.76;91.83;103938.91;5036096;28;20451;-71
2022/03/19 04:57:28;;;;;;;0.40;0.30;;;;;;;3.74;91.69;103948.97;5035958;28;20473;-70
2022/03/19 04:59:55;;;;;;;0.40;0.30;;;;;;;3.64;90.77;103940.28;5035584;28;20836;-71
2022/03/19 05:02:24;;;;;;;0.40;0.30;;;;;;;3.58;91.29;103945.47;5035794;28;20439;-72
2022/03/19 05:04:51;;;;;;;0.40;0.30;;;;;;;3.66;91.16;103937.41;5035851;28;20505;-72
2022/03/19 05:07:19;;;;;;;0.40;0.30;;;;;;;3.61;91.60;103945.16;5035484;28;20481;-71
2022/03/19 05:12:31;;;;;;;0.40;0.30;;;;;;;3.55;92.97;103946.66;5035693;28;20462;-70
2022/03/19 05:14:58;;;;;;;0.40;0.30;;;;;;;3.42;92.71;103938.31;5035713;28;20438;-70
2022/03/19 05:17:25;;;;;;;0.40;0.30;;;;;;;3.46;91.67;103947.69;5035431;28;20502;-70
2022/03/19 05:19:52;;;;;;;0.40;0.30;;;;;;;3.48;91.79;103940.31;5035344;28;20941;-69
2022/03/19 05:22:18;;;;;;;0.40;0.30;;;;;;;3.47;91.80;103939.47;5035643;28;20445;-70
2022/03/19 05:24:45;;;;;;;0.40;0.30;;;;;;;3.43;91.89;103942.66;5035495;28;20505;-71
2022/03/19 05:27:12;;;;;;;0.40;0.30;;;;;;;3.33;92.74;103944.69;5035366;28;20466;-70
2022/03/19 05:29:40;;;;;;;0.40;0.30;;;;;;;3.42;92.08;103944.50;5035211;28;20502;-72
2022/03/19 05:32:08;;;;;;;0.40;0.30;;;;;;;3.41;93.01;103940.16;5035302;28;20490;-70
2022/03/19 05:34:34;;;;;;;0.40;0.30;;;;;;;3.40;92.00;103943.81;5035416;28;20450;-69
2022/03/19 05:37:02;;;;;;;0.40;0.30;;;;;;;3.36;92.69;103944.34;5035275;28;20470;-70
2022/03/19 05:39:28;;;;;;;0.40;0.30;;;;;;;3.42;92.20;103941.00;5035192;28;20443;-70
2022/03/19 05:41:55;;;;;;;0.40;0.30;;;;;;;3.43;92.02;103934.63;5035315;28;20446;-71
2022/03/19 05:44:22;;;;;;;0.40;0.30;;;;;;;3.27;93.73;103932.78;5035223;28;20458;-70
2022/03/19 05:46:49;;;;;;;0.40;0.30;;;;;;;3.28;93.59;103937.16;5035252;28;20820;-70
2022/03/19 05:49:16;;;;;;;0.40;0.30;;;;;;;3.19;95.07;103933.66;5035155;28;20517;-70
2022/03/19 05:51:43;;;;;;;0.40;0.30;;;;;;;3.24;94.80;103942.03;5034826;28;21011;-69
2022/03/19 05:54:10;;;;;;;0.60;0.60;;;;;;;3.29;94.20;103942.34;5035216;28;20514;-70
2022/03/19 05:56:38;;;;;;;0.40;0.30;;;;;;;3.30;94.64;103937.81;5035088;28;20454;-70
2022/03/19 05:59:04;;;;;;;0.40;0.30;;;;;;;3.30;94.99;103945.84;5035106;28;20427;-70
2022/03/19 06:01:31;;;;;;;0.40;0.30;;;;;;;3.41;94.93;103948.22;5034969;28;20810;-70
2022/03/19 06:04:00;;;;;;;0.40;0.30;;;;;;;3.43;95.32;103948.03;5034956;28;20434;-69
2022/03/19 06:06:27;;;;;;;0.40;0.30;;;;;;;3.51;95.53;103950.69;5034602;28;20945;-70
2022/03/19 06:08:54;;;;;;;0.40;0.30;;;;;;;3.59;95.50;103950.69;5034820;28;20478;-70
2022/03/19 06:11:21;;;;;;;0.40;0.30;;;;;;;3.68;95.57;103954.19;5034769;28;20501;-70
2022/03/19 06:13:47;;;;;;;0.40;0.30;;;;;;;3.76;94.88;103956.81;5034786;28;20490;-70
2022/03/19 06:16:14;;;;;;;0.40;0.30;;;;;;;3.85;94.60;103961.19;5034533;28;20493;-70
2022/03/19 06:18:45;;;;;;;0.40;0.30;;;;;;;3.90;94.54;103963.34;5034218;28;20501;-70
2022/03/19 06:21:15;;;;;;;0.40;0.30;;;;;;;3.98;93.80;103958.75;5034344;28;20827;-69
2022/03/19 06:23:41;;;;;;;0.40;0.30;;;;;;;4.00;93.29;103966.66;5034578;28;20443;-69
2022/03/19 06:26:07;;;;;;;0.40;0.30;;;;;;;4.11;93.32;103970.78;5034083;28;20451;-69
2022/03/19 06:28:34;;;;;;;0.40;0.30;;;;;;;4.16;92.96;103961.22;5034312;28;20500;-69
2022/03/19 06:31:00;;;;;;;0.40;0.30;;;;;;;4.21;92.27;103958.03;5034332;28;20450;-72
2022/03/19 06:33:27;;;;;;;0.40;0.30;;;;;;;4.20;91.12;103957.16;5034165;28;20474;-74
2022/03/19 06:38:39;;;;;;;0.40;0.30;;;;;;;3.92;91.32;103956.78;5033437;28;20825;-73
2022/03/19 06:41:05;;;;;;;0.40;0.30;;;;;;;3.87;92.46;103952.94;5034083;28;20443;-71
2022/03/19 06:43:32;;;;;;;0.40;0.30;;;;;;;3.91;92.94;103956.97;5034112;28;20451;-68
2022/03/19 06:45:58;;;;;;;0.40;0.30;;;;;;;4.03;92.98;103953.72;5033951;28;20454;-68
2022/03/19 06:48:25;;;;;;;0.40;0.30;;;;;;;4.09;92.07;103954.88;5033927;28;20459;-68
2022/03/19 06:50:53;;;;;;;0.40;0.30;;;;;;;4.10;92.22;103956.53;5033742;28;20439;-68
2022/03/19 06:53:20;;;;;;;0.90;0.90;;;;;;;4.16;91.98;103950.50;5033997;28;20475;-68
2022/03/19 06:55:48;;;;;;;0.40;0.30;;;;;;;4.27;91.27;103952.78;5033945;28;20794;-69
2022/03/19 06:58:14;;;;;;;0.40;0.30;;;;;;;4.25;91.05;103953.94;5033874;28;20463;-69
2022/03/19 07:00:41;;;;;;;0.40;0.30;;;;;;;4.41;91.36;103953.88;5033824;28;20454;-69
2022/03/19 07:03:08;;;;;;;0.40;0.30;;;;;;;4.51;90.94;103956.31;5035074;28;20501;-69
2022/03/19 07:05:35;;;;;;;0.40;0.30;;;;;;;4.56;90.87;103945.91;5033687;28;20447;-69
2022/03/19 07:08:03;;;;;;;0.40;0.30;;;;;;;4.68;90.34;103943.66;5033227;28;20459;-69
2022/03/19 07:10:30;;;;;;;0.40;0.30;;;;;;;4.79;89.51;103951.31;5033671;28;20431;-69
2022/03/19 07:12:58;;;;;;;0.40;0.30;;;;;;;4.85;89.49;103955.09;5033576;28;20533;-69
2022/03/19 07:15:27;;;;;;;0.40;0.30;;;;;;;4.90;90.19;103955.41;5033703;28;20447;-69
2022/03/19 07:17:54;;;;;;;0.40;0.30;;;;;;;4.99;89.93;103947.09;5033233;28;20483;-69
2022/03/19 07:20:21;;;;;;;0.40;0.30;;;;;;;5.14;89.52;103947.16;5033307;28;20447;-69
2022/03/19 07:22:48;;;;;;;0.40;0.30;;;;;;;5.26;89.33;103951.06;5032840;28;20932;-69
2022/03/19 07:25:15;;;;;;;0.40;0.30;;;;;;;5.20;89.15;103951.78;5032955;28;20802;-69
2022/03/19 07:27:42;;;;;;;0.40;0.30;;;;;;;5.36;89.04;103941.91;5033295;28;20521;-69
2022/03/19 07:30:11;;;;;;;0.40;0.30;;;;;;;5.43;88.16;103938.31;5033423;28;20787;-69
2022/03/19 07:32:38;;;;;;;0.40;0.30;;;;;;;5.50;88.06;103939.25;5033258;28;20482;-69
2022/03/19 07:35:06;;;;;;;0.40;0.30;;;;;;;5.51;87.62;103937.41;5033273;28;20451;-69
2022/03/19 07:37:32;;;;;;;0.40;0.30;;;;;;;5.57;86.59;103945.53;5033148;28;20459;-69
2022/03/19 07:39:59;;;;;;;0.40;0.30;;;;;;;5.64;86.89;103934.91;5033248;28;20435;-68
2022/03/19 07:42:25;;;;;;;0.40;0.30;;;;;;;5.71;86.54;103925.09;5033383;28;20447;-68
2022/03/19 07:44:51;;;;;;;0.40;0.30;;;;;;;5.79;85.59;103930.34;5033218;28;20983;-69
2022/03/19 07:47:20;;;;;;;0.40;0.30;;;;;;;5.85;85.46;103919.88;5033157;28;20718;-69
2022/03/19 07:49:47;;;;;;;0.40;0.30;;;;;;;5.87;84.38;103912.44;5032475;28;20436;-68
2022/03/19 07:52:14;;;;;;;0.40;0.30;;;;;;;5.85;84.85;103912.63;5032971;28;20483;-68
2022/03/19 07:54:40;;;;;;;0.40;0.30;;;;;;;5.86;84.43;103911.63;5033120;28;20474;-68
2022/03/19 07:57:10;;;;;;;0.40;0.30;;;;;;;5.85;84.33;103919.88;5033131;28;20497;-68
2022/03/19 07:59:37;;;;;;;0.40;0.40;;;;;;;5.97;83.83;103913.00;5033076;28;20455;-68
2022/03/19 08:02:04;;;;;;;0.40;0.30;;;;;;;6.04;83.73;103919.31;5033145;28;20538;-68
2022/03/19 08:04:32;;;;;;;0.40;0.30;;;;;;;6.18;83.52;103905.00;5032961;28;20451;-68
2022/03/19 08:06:59;;;;;;;0.40;0.30;;;;;;;6.30;82.47;103908.88;5033085;28;20451;-69
2022/03/19 08:09:25;;;;;;;0.40;0.30;;;;;;;6.28;82.49;103916.28;5032761;28;20936;-69
2022/03/19 08:11:52;;;;;;;0.40;0.30;;;;;;;6.34;81.81;103911.19;5032918;28;20466;-69
2022/03/19 08:14:20;;;;;;;0.40;0.30;;;;;;;6.46;81.74;103909.66;5032899;28;20483;-68
2022/03/19 08:16:47;;;;;;;0.40;0.30;;;;;;;6.61;81.49;103907.75;5032758;28;20438;-69
2022/03/19 08:19:14;;;;;;;0.50;0.40;;;;;;;6.72;80.69;103926.06;5032687;28;20893;-68
2022/03/19 08:21:43;;;;;;;0.40;0.30;;;;;;;6.78;81.16;103922.63;5032934;28;20466;-68
2022/03/19 08:24:10;;;;;;;0.40;0.30;;;;;;;6.88;80.93;103921.47;5032707;28;20940;-68
2022/03/19 08:26:37;;;;;;;0.40;0.30;;;;;;;7.02;80.69;103921.38;5032440;28;20793;-69
2022/03/19 08:29:04;;;;;;;0.40;0.30;;;;;;;7.10;79.96;103920.41;5032841;28;20434;-72
2022/03/19 08:31:31;;;;;;;0.40;0.30;;;;;;;7.24;78.88;103918.66;5032902;28;20469;-73
2022/03/19 08:33:58;;;;;;;0.40;0.30;;;;;;;7.28;78.22;103914.53;5032817;28;20483;-73
2022/03/19 08:36:25;;;;;;;0.40;0.30;;;;;;;7.37;77.61;103916.03;5032767;28;20447;-73
2022/03/19 08:41:37;;;;;;;0.40;0.30;;;;;;;7.50;77.35;103920.69;5032638;28;20407;-73
2022/03/19 08:44:05;;;;;;;0.40;0.30;;;;;;;7.56;76.80;103914.50;5032411;28;20933;-73
2022/03/19 08:46:32;;;;;;;0.40;0.30;;;;;;;7.73;77.87;103910.44;5032438;28;20959;-75
2022/03/19 08:48:58;;;;;;;0.40;0.30;;;;;;;7.79;77.47;103909.69;5032634;28;20803;-74
2022/03/19 08:51:40;;;;;;;0.40;0.30;;;;;;;7.86;75.75;103908.84;5032725;28;20466;-74
2022/03/19 08:54:10;;;;;;;0.40;0.30;;;;;;;8.00;75.12;103915.97;5032366;28;20467;-74
2022/03/19 08:56:36;;;;;;;0.40;0.30;;;;;;;8.05;75.45;103908.09;5032543;28;20439;-75
2022/03/19 08:59:07;;;;;;;0.40;0.30;;;;;;;8.11;74.38;103899.22;5032662;28;20451;-75
2022/03/19 09:01:34;;;;;;;0.40;0.30;;;;;;;8.18;74.90;103908.16;5033791;28;20446;-74
2022/03/19 09:04:01;;;;;;;0.40;0.30;;;;;;;8.24;74.70;103909.22;5035884;28;20936;-74
2022/03/19 09:06:27;;;;;;;0.40;0.30;;;;;;;8.32;74.87;103912.59;5035660;28;20451;-74
2022/03/19 09:08:53;;;;;;;0.40;0.30;;;;;;;8.40;74.26;103910.75;5035981;28;20467;-75
2022/03/19 09:11:23;;;;;;;0.40;0.30;;;;;;;8.55;73.01;103904.13;5035670;28;20971;-74
2022/03/19 09:13:51;;;;;;;0.40;0.30;;;;;;;8.55;71.89;103900.59;5036026;28;20514;-75
2022/03/19 09:16:19;;;;;;;0.40;0.30;;;;;;;8.61;72.56;103893.53;5035918;28;20445;-74
2022/03/19 09:18:45;;;;;;;0.40;0.30;;;;;;;8.57;72.96;103888.53;5035655;28;20479;-74
2022/03/19 09:21:12;;;;;;;0.40;0.30;;;;;;;8.69;71.86;103887.94;5036001;28;20454;-75
2022/03/19 09:23:39;;;;;;;0.40;0.30;;;;;;;8.67;71.22;103881.91;5035825;28;20478;-74
2022/03/19 09:26:05;;;;;;;0.40;0.30;;;;;;;8.76;69.50;103889.59;5035730;28;20447;-74
2022/03/19 09:28:33;;;;;;;0.40;0.30;;;;;;;8.86;69.81;103888.38;5035702;28;20462;-74
2022/03/19 09:31:00;;;;;;;0.40;0.30;;;;;;;8.83;67.95;103892.31;5035362;28;20443;-75
2022/03/19 09:33:26;;;;;;;0.40;0.30;;;;;;;8.94;69.37;103888.13;5035253;28;20491;-73
2022/03/19 09:35:53;;;;;;;0.40;0.30;;;;;;;9.00;67.12;103885.44;5035330;28;20843;-74
2022/03/19 09:38:19;;;;;;;0.40;0.30;;;;;;;9.08;68.66;103881.72;5035137;28;20980;-74
2022/03/19 09:40:46;;;;;;;0.40;0.30;;;;;;;9.16;68.34;103884.16;5035289;28;20510;-74
2022/03/19 09:43:13;;;;;;;0.40;0.30;;;;;;;9.06;66.85;103876.50;5035862;28;20447;-75
2022/03/19 09:45:40;;;;;;;0.40;0.30;;;;;;;9.15;67.16;103876.28;5035895;28;20501;-76
2022/03/19 09:48:07;;;;;;;0.40;0.30;;;;;;;9.11;65.71;103865.03;5035116;28;20455;-76
2022/03/19 09:50:35;;;;;;;0.40;0.30;;;;;;;9.24;66.73;103877.72;5035422;28;20443;-73
2022/03/19 09:53:04;;;;;;;0.40;0.30;;;;;;;9.48;66.85;103860.00;5035278;28;20518;-74
2022/03/19 09:55:31;;;;;;;0.40;0.30;;;;;;;9.58;64.98;103863.91;5035322;28;20442;-74
2022/03/19 09:57:58;;;;;;;0.40;0.30;;;;;;;9.71;63.14;103864.91;5035170;28;20486;-73
2022/03/19 10:00:26;;;;;;;0.40;0.30;;;;;;;9.73;61.55;103852.81;5035246;28;20458;-78
2022/03/19 10:02:56;;;;;;;0.40;0.30;;;;;;;9.80;60.66;103847.38;5035339;28;20469;-77
2022/03/19 10:10:55;;;;;;;0.40;0.30;;;;;;;10.18;60.93;103860.09;5034890;28;20411;-74
2022/03/19 10:13:22;;;;;;;0.40;0.30;;;;;;;10.29;59.88;103851.31;5034264;28;20491;-77
2022/03/19 10:15:50;;;;;;;0.40;0.30;;;;;;;10.43;59.30;103852.03;5035423;28;20879;-77
2022/03/19 10:18:18;;;;;;;0.40;0.30;;;;;;;10.50;58.49;103847.41;5035468;28;20482;-78
2022/03/19 10:20:44;;;;;;;0.40;0.30;;;;;;;10.53;58.88;103844.25;5034910;28;20471;-76
2022/03/19 10:23:11;;;;;;;0.40;0.30;;;;;;;10.83;59.84;103853.38;5034806;28;20834;-77
2022/03/19 10:25:38;;;;;;;0.40;0.30;;;;;;;11.17;57.52;103843.06;5034509;28;20999;-76
2022/03/19 10:28:08;;;;;;;0.50;0.50;;;;;;;11.28;56.23;103855.88;5035031;28;20819;-78
2022/03/19 10:30:36;;;;;;;0.40;0.30;;;;;;;11.25;56.68;103856.34;5035312;28;20881;-77
2022/03/19 10:33:03;;;;;;;0.40;0.30;;;;;;;11.17;54.63;103863.94;5034923;28;20491;-78
2022/03/19 10:35:33;;;;;;;0.40;0.30;;;;;;;11.05;55.49;103871.97;5034606;28;20446;-70
2022/03/19 10:38:03;;;;;;;0.40;0.30;;;;;;;11.05;55.95;103866.56;5034422;28;20466;-73
2022/03/19 10:40:41;;;;;;;0.40;0.30;;;;;;;10.98;55.83;103854.91;5035177;28;20443;-68
2022/03/19 10:43:10;;;;;;;0.40;0.30;;;;;;;11.03;56.23;103852.41;5034389;28;20443;-73
2022/03/19 10:45:43;;;;;;;0.40;0.30;;;;;;;11.23;55.67;103850.28;5034000;28;20450;-73
2022/03/19 10:48:11;;;;;;;0.50;0.40;;;;;;;11.52;56.48;103845.19;5034171;28;20551;-73
2022/03/19 10:50:40;;;;;;;0.40;0.30;;;;;;;11.73;54.43;103844.72;5034355;28;20446;-73
2022/03/19 10:53:07;;;;;;;0.40;0.30;;;;;;;11.80;54.28;103853.59;5034102;28;20486;-72
2022/03/19 10:55:34;;;;;;;0.40;0.30;;;;;;;11.75;52.00;103852.63;5034131;28;20853;-74
2022/03/19 10:58:01;;;;;;;0.40;0.20;;;;;;;11.78;52.42;103847.59;5033755;28;20512;-73
2022/03/19 11:00:28;;;;;;;0.40;0.30;;;;;;;11.84;53.04;103838.53;5033994;28;20541;-74
2022/03/19 11:03:00;;;;;;;0.40;0.30;;;;;;;12.05;52.83;103839.09;5034031;28;20489;-74
2022/03/19 11:05:29;;;;;;;0.40;0.30;;;;;;;12.20;51.78;103844.94;5034048;28;20431;-75
2022/03/19 11:07:58;;;;;;;0.40;0.30;;;;;;;12.35;50.70;103834.47;5033686;28;20466;-72
2022/03/19 11:10:25;;;;;;;0.40;0.30;;;;;;;12.24;49.89;103848.84;5033668;28;20443;-73
2022/03/19 11:12:56;;;;;;;0.40;0.30;;;;;;;12.25;51.35;103836.91;5033597;28;20466;-73
2022/03/19 11:15:24;;;;;;;0.40;0.27;;;;;;;12.13;50.37;103841.50;5033846;28;20436;-73
2022/03/19 11:17:56;;;;;;;0.40;0.20;;;;;;;11.99;50.87;103840.00;5033360;28;20521;-73
2022/03/19 11:20:22;;;;;;;0.40;0.30;;;;;;;12.02;49.77;103828.69;5034149;28;20435;-72
2022/03/19 11:22:53;;;;;;;0.40;0.30;;;;;;;12.12;50.40;103818.91;5033424;28;20450;-73
2022/03/19 11:25:30;;;;;;;0.40;0.30;;;;;;;12.66;49.83;103823.50;5033408;28;20457;-74
2022/03/19 11:27:59;;;;;;;0.40;0.30;;;;;;;13.22;47.21;103814.78;5033286;28;20471;-72
2022/03/19 11:30:27;;;;;;;0.40;0.30;;;;;;;13.54;45.59;103817.06;5033455;28;20443;-73
2022/03/19 11:33:04;;;;;;;0.40;0.30;;;;;;;14.10;44.94;103812.69;5033049;28;20446;-73
2022/03/19 11:35:33;;;;;;;0.40;0.30;;;;;;;14.79;44.20;103805.16;5033490;28;20443;-73
2022/03/19 11:38:02;;;;;;;0.40;0.20;;;;;;;14.69;41.78;103801.41;5033000;28;20463;-73
2022/03/19 11:40:33;;;;;;;0.40;0.30;;;;;;;15.30;43.40;103799.53;5033350;28;20443;-73
2022/03/19 11:43:01;;;;;;;0.40;0.30;;;;;;;15.89;41.71;103794.22;5033247;28;20467;-74
2022/03/19 11:45:37;;;;;;;0.40;0.30;;;;;;;16.68;40.25;103804.47;5033058;28;20581;-72
2022/03/19 11:48:03;;;;;;;0.40;0.30;;;;;;;16.68;40.52;103795.44;5033085;28;20458;-72
2022/03/19 11:50:31;;;;;;;0.40;0.30;;;;;;;15.66;41.19;103803.56;5033229;28;20513;-72
2022/03/19 11:53:07;;;;;;;0.40;0.30;;;;;;;14.71;42.09;103794.66;5033159;28;20447;-72